Time;durP1;ratioP1;P1;durP2;ratioP2;P2;SDS_P1;SDS_P2;PMS_P1;PMS_P2;Temp;Humidity;BMP_temperature;BMP_pressure;BME280_temperature;BME280_humidity;BME280_pressure;Samples;Min_cycle;Max_cycle;Signal;HPM_P1;HPM_P2
2021/05/13 00:00:28;;;;;;;;;;;;;;;5.99;100.00;98588.28;5054399;28;19924;-85
2021/05/13 00:02:55;;;;;;;;;;;;;;;6.04;100.00;98590.66;5054491;28;19935;-86
2021/05/13 00:05:23;;;;;;;;;;;;;;;6.01;100.00;98597.81;5054430;28;20399;-86
2021/05/13 00:07:50;;;;;;;;;;;;;;;6.01;100.00;98588.69;5070850;28;19924;-86
2021/05/13 00:10:20;;;;;;;;;;;;;;;5.95;100.00;98609.72;5055750;28;19991;-86
2021/05/13 00:12:55;;;;;;;;;;;;;;;5.96;100.00;98619.59;5054152;28;19931;-86
2021/05/13 00:15:23;;;;;;;;;;;;;;;6.07;100.00;98609.25;5054428;28;19925;-86
2021/05/13 00:17:51;;;;;;;;;;;;;;;6.03;100.00;98622.38;5054289;28;19924;-87
2021/05/13 00:20:20;;;;;;;;;;;;;;;5.96;100.00;98625.16;5037718;28;19967;-87
2021/05/13 00:22:50;;;;;;;;;;;;;;;6.04;100.00;98623.94;5034200;28;19925;-86
2021/05/13 00:25:18;;;;;;;;;;;;;;;5.93;100.00;98623.19;5054229;28;20395;-86
2021/05/13 00:27:45;;;;;;;;;;;;;;;5.78;100.00;98618.88;5017385;28;19999;-86
2021/05/13 00:30:13;;;;;;;;;;;;;;;5.69;100.00;98624.84;5034880;28;19979;-86
2021/05/13 00:32:40;;;;;;;;;;;;;;;5.67;100.00;98618.09;5053799;28;19931;-87
2021/05/13 00:35:09;;;;;;;;;;;;;;;5.50;100.00;98619.75;5035699;28;20388;-87
2021/05/13 00:37:36;;;;;;;;;;;;;;;5.49;100.00;98627.28;5070576;28;19934;-87
2021/05/13 00:40:05;;;;;;;;;;;;;;;5.48;100.00;98624.91;5053453;28;19932;-86
2021/05/13 00:42:32;;;;;;;;;;;;;;;5.43;100.00;98628.09;5021369;28;20023;-87
2021/05/13 00:45:00;;;;;;;;;;;;;;;5.41;100.00;98620.19;5054166;28;19932;-87
2021/05/13 00:47:28;;;;;;;;;;;;;;;5.41;100.00;98624.91;5035481;28;19925;-87
2021/05/13 00:49:56;;;;;;;;;;;;;;;5.41;100.00;98628.50;5037378;28;19928;-87
2021/05/13 00:52:24;;;;;;;;;;;;;;;5.40;100.00;98634.44;5053551;28;19932;-87
2021/05/13 00:54:51;;;;;;;;;;;;;;;5.36;100.00;98634.44;5053314;28;19924;-86
2021/05/13 00:57:19;;;;;;;;;;;;;;;5.29;100.00;98644.72;5020328;28;19931;-87
2021/05/13 00:59:49;;;;;;;;;;;;;;;5.26;100.00;98640.00;5053455;28;20022;-87
2021/05/13 01:02:16;;;;;;;;;;;;;;;5.21;100.00;98630.09;5052883;28;19963;-87
2021/05/13 01:04:44;;;;;;;;;;;;;;;5.09;100.00;98636.06;5053024;28;19929;-86
2021/05/13 01:07:11;;;;;;;;;;;;;;;5.30;100.00;98641.56;5053254;28;19929;-87
2021/05/13 01:09:38;;;;;;;;;;;;;;;5.40;100.00;98645.50;5035582;28;20380;-87
2021/05/13 01:12:09;;;;;;;;;;;;;;;5.37;100.00;98638.81;5036609;28;19933;-87
2021/05/13 01:19:40;;;;;;;;;;;;;;;4.96;100.00;98647.94;5053095;28;19978;-87
2021/05/13 01:22:10;;;;;;;;;;;;;;;4.97;100.00;98642.00;5036446;28;19933;-87
2021/05/13 01:24:37;;;;;;;;;;;;;;;4.96;100.00;98647.94;5019806;28;20010;-87
2021/05/13 01:27:05;;;;;;;;;;;;;;;4.92;100.00;98642.41;5052893;28;19929;-87
2021/05/13 01:29:33;;;;;;;;;;;;;;;4.98;100.00;98651.88;5036128;28;19932;-87
2021/05/13 01:32:01;;;;;;;;;;;;;;;5.04;100.00;98650.31;5036444;28;19925;-87
2021/05/13 01:34:29;;;;;;;;;;;;;;;5.03;100.00;98653.47;5036729;28;20044;-88
2021/05/13 01:36:56;;;;;;;;;;;;;;;5.07;100.00;98655.03;5036278;28;19932;-87
2021/05/13 01:39:24;;;;;;;;;;;;;;;5.13;100.00;98672.88;5019750;28;19925;-86
2021/05/13 01:41:51;;;;;;;;;;;;;;;5.17;100.00;98675.63;5036138;28;19932;-87
2021/05/13 01:44:18;;;;;;;;;;;;;;;5.19;100.00;98679.59;5052586;28;20265;-87
2021/05/13 01:46:46;;;;;;;;;;;;;;;5.24;100.00;98678.41;5052501;28;19936;-87
2021/05/13 01:49:17;;;;;;;;;;;;;;;5.20;100.00;98689.47;5036120;28;20051;-87
2021/05/13 01:51:45;;;;;;;;;;;;;;;4.96;100.00;98679.19;5052559;28;19925;-87
2021/05/13 01:54:13;;;;;;;;;;;;;;;4.87;100.00;98678.81;5035984;28;19924;-86
2021/05/13 01:56:40;;;;;;;;;;;;;;;4.91;100.00;98674.06;5036028;28;19948;-86
2021/05/13 01:59:08;;;;;;;;;;;;;;;4.65;100.00;98671.66;5035680;28;19978;-88
2021/05/13 02:01:35;;;;;;;;;;;;;;;4.74;100.00;98674.81;5052489;28;20300;-88
2021/05/13 02:04:02;;;;;;;;;;;;;;;4.79;100.00;98679.16;5035733;28;19925;-89
2021/05/13 02:06:30;;;;;;;;;;;;;;;4.84;100.00;98682.38;5035921;28;19925;-89
2021/05/13 02:08:57;;;;;;;;;;;;;;;4.86;100.00;98693.81;5053150;28;19925;-88
2021/05/13 02:11:24;;;;;;;;;;;;;;;4.81;100.00;98683.16;5036016;28;19924;-88
2021/05/13 02:13:52;;;;;;;;;;;;;;;4.83;100.00;98688.28;5052700;28;19925;-88
2021/05/13 02:16:19;;;;;;;;;;;;;;;4.82;100.00;98686.69;5057660;28;19925;-88
2021/05/13 02:18:46;;;;;;;;;;;;;;;4.83;100.00;98693.81;5056362;28;19948;-88
2021/05/13 02:21:13;;;;;;;;;;;;;;;4.82;100.00;98697.75;5057472;28;19925;-88
2021/05/13 02:23:42;;;;;;;;;;;;;;;4.84;100.00;98700.94;5003527;28;20380;-87
2021/05/13 02:26:09;;;;;;;;;;;;;;;4.82;100.00;98704.09;5037422;28;19924;-87
2021/05/13 02:28:36;;;;;;;;;;;;;;;4.85;100.00;98713.59;5039451;28;20330;-88
2021/05/13 02:31:05;;;;;;;;;;;;;;;4.74;100.00;98721.88;5039713;28;19936;-87
2021/05/13 02:33:49;;;;;;;;;;;;;;;4.81;100.00;98729.41;5057428;28;20410;-87
2021/05/13 02:36:17;;;;;;;;;;;;;;;4.87;100.00;98736.94;5023307;28;20947;-87
2021/05/13 02:38:44;;;;;;;;;;;;;;;4.94;100.00;98730.59;5056027;28;20281;-87
2021/05/13 02:41:13;;;;;;;;;;;;;;;4.93;100.00;98734.56;5023236;28;19932;-87
2021/05/13 02:44:00;;;;;;;;;;;;;;;4.89;100.00;98748.38;5012130;28;19925;-87
2021/05/13 02:46:27;;;;;;;;;;;;;;;4.83;100.00;98749.97;5068965;28;19968;-87
2021/05/13 02:48:55;;;;;;;;;;;;;;;4.83;100.00;98744.44;5040364;28;19925;-87
2021/05/13 02:51:22;;;;;;;;;;;;;;;4.85;100.00;98752.34;5031993;28;19926;-87
2021/05/13 02:53:50;;;;;;;;;;;;;;;4.85;100.00;98753.13;5055834;28;19946;-87
2021/05/13 02:56:17;;;;;;;;;;;;;;;4.84;100.00;98757.09;5055982;28;19995;-87
2021/05/13 02:58:46;;;;;;;;;;;;;;;4.75;100.00;98759.47;5072072;28;20019;-87
2021/05/13 03:01:27;;;;;;;;;;;;;;;4.73;100.00;98759.06;5056066;28;20025;-86
2021/05/13 03:03:54;;;;;;;;;;;;;;;4.66;100.00;98759.03;5042467;28;20423;-87
2021/05/13 03:06:23;;;;;;;;;;;;;;;4.68;100.00;98778.78;5055510;28;20291;-87
2021/05/13 03:08:53;;;;;;;;;;;;;;;4.70;100.00;98792.25;5035767;28;19925;-86
2021/05/13 03:11:22;;;;;;;;;;;;;;;4.78;100.00;98794.66;5049939;28;20027;-87
2021/05/13 03:13:54;;;;;;;;;;;;;;;4.82;100.00;98817.59;5056566;28;20454;-86
2021/05/13 03:16:22;;;;;;;;;;;;;;;4.65;100.00;98865.38;5056778;28;19925;-87
2021/05/13 03:18:53;;;;;;;;;;;;;;;4.83;100.00;98877.28;5038708;28;19925;-86
2021/05/13 03:21:31;;;;;;;;;;;;;;;4.80;100.00;98877.31;5042618;28;19925;-86
2021/05/13 03:24:09;;;;;;;;;;;;;;;4.85;100.00;98882.44;5022688;28;20454;-87
2021/05/13 03:26:45;;;;;;;;;;;;;;;4.74;100.00;98874.09;5041703;28;19929;-87
2021/05/13 03:29:13;;;;;;;;;;;;;;;4.54;100.00;98875.63;5038600;28;19924;-87
2021/05/13 03:31:41;;;;;;;;;;;;;;;4.61;100.00;98870.09;5022254;28;20449;-86
2021/05/13 03:34:08;;;;;;;;;;;;;;;4.77;100.00;98887.16;5054920;28;19971;-86
2021/05/13 03:36:35;;;;;;;;;;;;;;;4.90;100.00;98882.06;5038196;28;19925;-87
2021/05/13 03:39:04;;;;;;;;;;;;;;;5.00;100.00;98884.88;5038516;28;19925;-87
2021/05/13 03:41:31;;;;;;;;;;;;;;;5.14;100.00;98890.47;5054763;28;19925;-87
2021/05/13 03:43:58;;;;;;;;;;;;;;;5.14;100.00;98889.66;5054795;28;20384;-87
2021/05/13 03:46:25;;;;;;;;;;;;;;;5.17;100.00;98900.75;5054661;28;19925;-87
2021/05/13 03:48:52;;;;;;;;;;;;;;;5.09;100.00;98895.56;5055724;28;19925;-86
2021/05/13 03:51:20;;;;;;;;;;;;;;;5.04;100.00;98898.75;5054728;28;19928;-87
2021/05/13 03:53:47;;;;;;;;;;;;;;;5.21;100.00;98904.31;5055934;28;19925;-87
2021/05/13 03:56:14;;;;;;;;;;;;;;;5.16;100.00;98918.56;5034508;28;19929;-87
2021/05/13 03:58:44;;;;;;;;;;;;;;;5.10;100.00;98917.34;5054496;28;19924;-87
2021/05/13 04:01:15;;;;;;;;;;;;;;;5.04;100.00;98913.38;5054650;28;19932;-86
2021/05/13 04:03:42;;;;;;;;;;;;;;;5.17;100.00;98924.88;5037806;28;19929;-87
2021/05/13 04:06:09;;;;;;;;;;;;;;;5.01;100.00;98921.69;5054469;28;19925;-87
2021/05/13 04:08:36;;;;;;;;;;;;;;;5.01;100.00;98921.69;5054153;28;19928;-86
2021/05/13 04:11:03;;;;;;;;;;;;;;;4.98;100.00;98926.00;5055441;28;20022;-87
2021/05/13 04:13:31;;;;;;;;;;;;;;;5.00;100.00;98926.41;5054208;28;19928;-86
2021/05/13 04:16:00;;;;;;;;;;;;;;;4.99;100.00;98924.03;5037651;28;19925;-87
2021/05/13 04:18:27;;;;;;;;;;;;;;;5.13;100.00;98924.91;5034057;28;20491;-87
2021/05/13 04:20:54;;;;;;;;;;;;;;;5.21;100.00;98932.03;5051679;28;19925;-87
2021/05/13 04:23:21;;;;;;;;;;;;;;;5.42;100.00;98947.94;5070440;28;19964;-87
2021/05/13 04:25:49;;;;;;;;;;;;;;;5.44;100.00;98943.56;5053994;28;20433;-86
2021/05/13 04:28:16;;;;;;;;;;;;;;;5.56;100.00;98948.75;5054282;28;20285;-86
2021/05/13 04:30:43;;;;;;;;;;;;;;;5.47;100.00;98948.34;5021087;28;19932;-87
2021/05/13 04:33:12;;;;;;;;;;;;;;;5.47;100.00;98942.78;5053670;28;19967;-87
2021/05/13 04:35:39;;;;;;;;;;;;;;;5.32;100.00;98943.13;5037493;28;20565;-87
2021/05/13 04:38:08;;;;;;;;;;;;;;;5.36;100.00;98955.03;5052625;28;19936;-87
2021/05/13 04:40:35;;;;;;;;;;;;;;;5.40;100.00;98951.09;5053563;28;19925;-87
2021/05/13 04:43:03;;;;;;;;;;;;;;;5.49;100.00;98953.47;5037051;28;19932;-87
2021/05/13 04:45:30;;;;;;;;;;;;;;;5.54;100.00;98953.09;5037326;28;20067;-87
2021/05/13 04:50:24;;;;;;;;;;;;;;;5.58;100.00;98956.66;5054991;28;19924;-87
2021/05/13 04:52:51;;;;;;;;;;;;;;;5.61;100.00;98961.44;5053559;28;19968;-87
2021/05/13 04:55:18;;;;;;;;;;;;;;;5.45;100.00;98959.00;5036834;28;19924;-87
2021/05/13 04:57:45;;;;;;;;;;;;;;;5.65;100.00;98969.75;5054404;28;20372;-87
2021/05/13 05:00:13;;;;;;;;;;;;;;;5.73;100.00;98969.38;5053341;28;20074;-88
2021/05/13 05:02:40;;;;;;;;;;;;;;;5.65;100.00;98972.53;5053133;28;19932;-87
2021/05/13 05:05:07;;;;;;;;;;;;;;;5.70;100.00;98980.44;5053322;28;20398;-87
2021/05/13 05:07:35;;;;;;;;;;;;;;;5.60;100.00;98976.47;5053286;28;19970;-87
2021/05/13 05:10:02;;;;;;;;;;;;;;;5.65;100.00;98975.31;5036463;28;19925;-88
2021/05/13 05:12:29;;;;;;;;;;;;;;;5.80;100.00;98976.91;5053206;28;19932;-87
2021/05/13 05:14:57;;;;;;;;;;;;;;;5.94;100.00;98979.75;5036648;28;19925;-88
2021/05/13 05:17:25;;;;;;;;;;;;;;;5.97;100.00;98982.50;5052823;28;20277;-89
2021/05/13 05:19:52;;;;;;;;;;;;;;;6.12;100.00;98980.53;5053246;28;19925;-88
2021/05/13 05:22:20;;;;;;;;;;;;;;;6.37;100.00;98995.19;5016531;28;20308;-88
2021/05/13 05:24:47;;;;;;;;;;;;;;;6.50;100.00;98997.16;5052828;28;19929;-88
2021/05/13 05:27:15;;;;;;;;;;;;;;;6.41;100.00;98993.19;5053326;28;19960;-87
2021/05/13 05:29:42;;;;;;;;;;;;;;;6.77;100.00;99000.31;5036240;28;19925;-88
2021/05/13 05:32:09;;;;;;;;;;;;;;;6.78;100.00;99005.47;5052644;28;19935;-87
2021/05/13 05:34:37;;;;;;;;;;;;;;;6.95;100.00;99006.63;5036296;28;19967;-87
2021/05/13 05:37:04;;;;;;;;;;;;;;;7.34;100.00;99015.63;5020069;28;19932;-87
2021/05/13 05:39:31;;;;;;;;;;;;;;;7.67;100.00;99026.19;5036240;28;19925;-87
2021/05/13 05:41:58;;;;;;;;;;;;;;;7.90;100.00;99032.03;5036592;28;19928;-90
2021/05/13 05:44:25;;;;;;;;;;;;;;;8.29;100.00;99045.69;5000064;28;19933;-85
2021/05/13 05:46:52;;;;;;;;;;;;;;;8.82;100.00;99046.88;5043110;28;19925;-85
2021/05/13 05:49:20;;;;;;;;;;;;;;;9.18;100.00;99063.25;5053302;28;19925;-82
2021/05/13 05:51:47;;;;;;;;;;;;;;;9.54;100.00;99062.44;5053572;28;19929;-90
2021/05/13 05:54:14;;;;;;;;;;;;;;;9.72;100.00;99059.41;5040341;28;19937;-85
2021/05/13 05:56:42;;;;;;;;;;;;;;;9.79;100.00;99060.13;5066072;28;19931;-80
2021/05/13 05:59:09;;;;;;;;;;;;;;;9.84;100.00;99044.91;5053010;28;19940;-81
2021/05/13 06:01:38;;;;;;;;;;;;;;;10.03;100.00;99038.66;5051233;28;20308;-81
2021/05/13 06:04:07;;;;;;;;;;;;;;;9.97;100.00;99018.00;5052428;28;19925;-83
2021/05/13 06:06:37;;;;;;;;;;;;;;;10.03;100.00;99002.34;5052677;28;19932;-84
2021/05/13 06:09:04;;;;;;;;;;;;;;;10.06;100.00;98979.19;5053835;28;19925;-84
2021/05/13 06:11:31;;;;;;;;;;;;;;;10.13;100.00;98957.56;5053040;28;19925;-84
2021/05/13 06:13:58;;;;;;;;;;;;;;;10.10;100.00;98935.28;5053464;28;19924;-84
2021/05/13 06:16:26;;;;;;;;;;;;;;;10.14;100.00;98910.91;5036207;28;19925;-85
2021/05/13 06:18:54;;;;;;;;;;;;;;;10.08;100.00;98881.88;5032234;28;19929;-86
2021/05/13 06:21:22;;;;;;;;;;;;;;;10.06;100.00;98867.53;5022096;28;20034;-85
2021/05/13 06:23:51;;;;;;;;;;;;;;;9.99;100.00;98846.13;5019446;28;19932;-89
2021/05/13 06:26:21;;;;;;;;;;;;;;;9.99;100.00;98818.22;5052663;28;20380;-89
2021/05/13 06:28:48;;;;;;;;;;;;;;;10.14;100.00;98796.44;5035534;28;19925;-83
2021/05/13 06:31:15;;;;;;;;;;;;;;;10.43;100.00;98787.09;5053325;28;19925;-83
2021/05/13 06:33:42;;;;;;;;;;;;;;;10.65;100.00;98726.75;5059789;28;19970;-89
2021/05/13 06:36:09;;;;;;;;;;;;;;;10.62;100.00;98693.31;5055664;28;19925;-88
2021/05/13 06:38:37;;;;;;;;;;;;;;;10.75;100.00;98641.91;5041403;28;20016;-89
2021/05/13 06:41:07;;;;;;;;;;;;;;;10.88;100.00;98611.28;5055687;28;20325;-89
2021/05/13 06:43:34;;;;;;;;;;;;;;;11.19;100.00;98580.94;5069243;28;19946;-89
2021/05/13 06:46:01;;;;;;;;;;;;;;;11.63;100.00;98569.75;5069539;28;19932;-90
2021/05/13 06:48:28;;;;;;;;;;;;;;;12.14;100.00;98543.47;5069748;28;19931;-90
2021/05/13 06:50:56;;;;;;;;;;;;;;;12.37;100.00;98523.53;5088737;28;20456;-89
2021/05/13 06:53:23;;;;;;;;;;;;;;;12.37;100.00;98486.34;5072272;28;19924;-89
2021/05/13 06:55:53;;;;;;;;;;;;;;;12.66;100.00;98464.56;5063336;28;19931;-89
2021/05/13 06:58:22;;;;;;;;;;;;;;;12.80;100.00;98444.44;5069269;28;19924;-90
2021/05/13 07:00:49;;;;;;;;;;;;;;;12.65;100.00;98418.94;5072332;28;20019;-89
2021/05/13 07:03:16;;;;;;;;;;;;;;;12.69;100.00;98402.75;5035508;28;20384;-89
2021/05/13 07:05:44;;;;;;;;;;;;;;;12.48;100.00;98386.69;5042265;28;19925;-91
2021/05/13 07:08:11;;;;;;;;;;;;;;;12.48;100.00;98360.69;5038147;28;19929;-91
2021/05/13 07:10:38;;;;;;;;;;;;;;;12.16;100.00;98358.97;5038784;28;20307;-91
2021/05/13 07:13:05;;;;;;;;;;;;;;;12.44;100.00;98343.22;5055408;28;20002;-91
2021/05/13 07:15:33;;;;;;;;;;;;;;;12.50;100.00;98327.38;5041534;28;19928;-91
2021/05/13 07:18:00;;;;;;;;;;;;;;;12.59;100.00;98319.06;5058128;28;19932;-91
2021/05/13 07:20:27;;;;;;;;;;;;;;;12.88;100.00;98313.19;5038544;28;19925;-93
2021/05/13 07:22:55;;;;;;;;;;;;;;;12.88;100.00;98302.00;5018959;28;19932;-90
2021/05/13 07:25:22;;;;;;;;;;;;;;;12.91;100.00;98292.66;5029818;28;20016;-89
2021/05/13 07:27:51;;;;;;;;;;;;;;;12.81;100.00;98274.22;5018720;28;20456;-92
2021/05/13 07:30:18;;;;;;;;;;;;;;;12.90;100.00;98271.50;5022408;28;19929;-91
2021/05/13 07:32:47;;;;;;;;;;;;;;;12.86;100.00;98265.25;5022192;28;19964;-90
2021/05/13 07:35:16;;;;;;;;;;;;;;;12.75;100.00;98266.41;5054832;28;19972;-88
2021/05/13 07:37:44;;;;;;;;;;;;;;;12.93;100.00;98259.34;5054974;28;19924;-88
2021/05/13 07:40:12;;;;;;;;;;;;;;;12.82;100.00;98254.16;5038335;28;19932;-87
2021/05/13 07:42:40;;;;;;;;;;;;;;;12.58;100.00;98259.44;5054601;28;20368;-89
2021/05/13 07:45:07;;;;;;;;;;;;;;;12.23;100.00;98240.31;5054519;28;19925;-88
2021/05/13 07:47:37;;;;;;;;;;;;;;;11.98;100.00;98240.41;5054463;28;20400;-88
2021/05/13 07:50:08;;;;;;;;;;;;;;;11.90;100.00;98239.88;5037256;28;19925;-87
2021/05/13 07:52:35;;;;;;;;;;;;;;;12.08;100.00;98237.25;5020402;28;20513;-87
2021/05/13 07:55:03;;;;;;;;;;;;;;;12.13;100.00;98242.25;5034722;28;19925;-87
2021/05/13 07:57:31;;;;;;;;;;;;;;;12.18;100.00;98244.50;5053647;28;19933;-87
2021/05/13 07:59:58;;;;;;;;;;;;;;;12.30;100.00;98246.44;5037162;28;20012;-87
2021/05/13 08:02:26;;;;;;;;;;;;;;;12.62;100.00;98240.47;5037194;28;19924;-87
2021/05/13 08:04:53;;;;;;;;;;;;;;;12.50;100.00;98243.34;5036287;28;20638;-86
2021/05/13 08:07:22;;;;;;;;;;;;;;;12.57;100.00;98238.25;5054126;28;19925;-87
2021/05/13 08:09:49;;;;;;;;;;;;;;;12.75;100.00;98232.00;5036306;28;19968;-87
2021/05/13 08:12:17;;;;;;;;;;;;;;;13.22;100.00;98231.81;5053356;28;19933;-87
2021/05/13 08:14:44;;;;;;;;;;;;;;;13.33;100.00;98229.38;5036281;28;19947;-87
2021/05/13 08:17:12;;;;;;;;;;;;;;;13.42;100.00;98232.22;5053740;28;19971;-88
2021/05/13 08:19:40;;;;;;;;;;;;;;;13.42;100.00;98223.78;5051426;28;19944;-88
2021/05/13 08:22:07;;;;;;;;;;;;;;;13.00;100.00;98231.06;5036115;28;19925;-87
2021/05/13 08:24:34;;;;;;;;;;;;;;;12.78;100.00;98228.28;5070113;28;20390;-86
2021/05/13 08:27:02;;;;;;;;;;;;;;;12.70;100.00;98230.56;5054133;28;19924;-86
2021/05/13 08:29:30;;;;;;;;;;;;;;;12.47;100.00;98222.63;5054962;28;19929;-88
2021/05/13 08:31:58;;;;;;;;;;;;;;;12.48;100.00;98221.38;5037478;28;19925;-88
2021/05/13 08:34:25;;;;;;;;;;;;;;;12.68;100.00;98221.84;5053299;28;20013;-87
2021/05/13 08:36:54;;;;;;;;;;;;;;;13.05;100.00;98225.66;5055199;28;19924;-87
2021/05/13 08:39:23;;;;;;;;;;;;;;;13.36;100.00;98217.22;5053672;28;20016;-87
2021/05/13 08:41:51;;;;;;;;;;;;;;;13.31;100.00;98206.59;5037180;28;19925;-88
2021/05/13 08:44:19;;;;;;;;;;;;;;;13.73;100.00;98210.47;5054210;28;20015;-86
2021/05/13 08:46:47;;;;;;;;;;;;;;;13.73;100.00;98213.25;5053869;28;19971;-86
2021/05/13 08:49:14;;;;;;;;;;;;;;;13.63;100.00;98217.31;5041659;28;20428;-86
2021/05/13 08:51:41;;;;;;;;;;;;;;;13.15;100.00;98210.44;5052093;28;19962;-86
2021/05/13 08:54:08;;;;;;;;;;;;;;;12.81;100.00;98213.34;5053790;28;20019;-86
2021/05/13 08:56:35;;;;;;;;;;;;;;;12.85;100.00;98218.81;5018776;28;19932;-87
2021/05/13 08:59:04;;;;;;;;;;;;;;;12.86;100.00;98217.59;5035315;28;20398;-86
2021/05/13 09:01:32;;;;;;;;;;;;;;;12.88;100.00;98206.66;5019893;28;19948;-87
2021/05/13 09:04:01;;;;;;;;;;;;;;;12.97;100.00;98220.75;5053174;28;19939;-86
2021/05/13 09:06:41;;;;;;;;;;;;;;;13.05;100.00;98214.44;5054520;28;19924;-87
2021/05/13 09:09:13;;;;;;;;;;;;;;;13.00;100.00;98222.66;5043425;28;20013;-87
2021/05/13 09:11:47;;;;;;;;;;;;;;;12.94;100.00;98216.84;5036803;28;20380;-87
2021/05/13 09:14:21;;;;;;;;;;;;;;;13.23;100.00;98208.91;5037258;28;19925;-87
2021/05/13 09:16:49;;;;;;;;;;;;;;;13.37;100.00;98210.34;5036451;28;19960;-86
2021/05/13 09:19:26;;;;;;;;;;;;;;;13.24;100.00;98206.91;5033666;28;19933;-86
2021/05/13 09:22:01;;;;;;;;;;;;;;;13.61;100.00;98205.75;5053072;28;19924;-86
2021/05/13 09:25:02;;;;;;;;;;;;;;;13.49;100.00;98206.66;5036106;28;19928;-86
2021/05/13 09:27:29;;;;;;;;;;;;;;;13.58;100.00;98207.47;5025232;28;19950;-86
2021/05/13 09:30:06;;;;;;;;;;;;;;;13.57;100.00;98207.94;5053942;28;19924;-86
2021/05/13 09:32:33;;;;;;;;;;;;;;;13.74;100.00;98195.97;5036452;28;19925;-86
2021/05/13 09:35:05;;;;;;;;;;;;;;;13.91;100.00;98193.63;5036486;28;20010;-85
2021/05/13 09:37:43;;;;;;;;;;;;;;;13.99;100.00;98200.53;5052764;28;19929;-86
2021/05/13 09:40:12;;;;;;;;;;;;;;;14.23;100.00;98204.28;5023635;28;20315;-86
2021/05/13 09:42:40;;;;;;;;;;;;;;;13.94;100.00;98193.50;5052965;28;20320;-87
2021/05/13 09:45:09;;;;;;;;;;;;;;;13.78;100.00;98196.56;5048915;28;19964;-86
2021/05/13 09:47:37;;;;;;;;;;;;;;;13.72;100.00;98192.81;5044712;28;19925;-86
2021/05/13 09:50:14;;;;;;;;;;;;;;;13.51;100.00;98193.72;5052399;28;19932;-86
2021/05/13 09:52:41;;;;;;;;;;;;;;;13.64;100.00;98200.00;5052449;28;20019;-85
2021/05/13 09:55:11;;;;;;;;;;;;;;;13.89;100.00;98196.13;5050070;28;19929;-85
2021/05/13 09:57:40;;;;;;;;;;;;;;;14.15;100.00;98198.19;5052220;28;19932;-85
2021/05/13 10:00:08;;;;;;;;;;;;;;;14.24;100.00;98194.63;5052346;28;19925;-85
2021/05/13 10:02:38;;;;;;;;;;;;;;;14.36;100.00;98202.09;5052400;28;20388;-85
2021/05/13 10:05:05;;;;;;;;;;;;;;;14.66;100.00;98194.75;5052281;28;19925;-85
2021/05/13 10:07:32;;;;;;;;;;;;;;;14.68;100.00;98190.19;5052572;28;20014;-87
2021/05/13 10:09:59;;;;;;;;;;;;;;;15.02;100.00;98186.19;5053192;28;19929;-86
2021/05/13 10:12:27;;;;;;;;;;;;;;;14.68;100.00;98173.31;5035008;28;20387;-86
2021/05/13 10:14:55;;;;;;;;;;;;;;;15.07;100.00;98177.88;5024058;28;19947;-89
2021/05/13 10:17:22;;;;;;;;;;;;;;;14.99;100.00;98171.06;5018941;28;20410;-89
2021/05/13 10:19:53;;;;;;;;;;;;;;;14.83;100.00;98174.22;5053373;28;19936;-89
2021/05/13 10:22:20;;;;;;;;;;;;;;;14.75;100.00;98167.41;5035500;28;20265;-88
2021/05/13 10:25:07;;;;;;;;;;;;;;;14.88;100.00;98170.78;5052388;28;20291;-89
2021/05/13 10:27:35;;;;;;;;;;;;;;;14.67;100.00;98166.16;5051961;28;19925;-89
2021/05/13 10:30:02;;;;;;;;;;;;;;;14.56;100.00;98163.03;5035793;28;19932;-89
2021/05/13 10:32:30;;;;;;;;;;;;;;;15.07;100.00;98155.38;5052106;28;20671;-89
2021/05/13 10:34:58;;;;;;;;;;;;;;;15.52;100.00;98163.66;5022407;28;19925;-88
2021/05/13 10:37:30;;;;;;;;;;;;;;;15.42;100.00;98158.56;5023049;28;19931;-88
2021/05/13 10:40:14;;;;;;;;;;;;;;;14.93;100.00;98158.91;5022709;28;19925;-89
2021/05/13 10:42:45;;;;;;;;;;;;;;;14.57;100.00;98164.59;5056648;28;20284;-86
2021/05/13 10:45:24;;;;;;;;;;;;;;;14.46;100.00;98165.09;5053155;28;19925;-86
2021/05/13 10:48:25;;;;;;;;;;;;;;;14.53;100.00;98155.56;5055765;28;20391;-86
2021/05/13 10:50:55;;;;;;;;;;;;;;;14.65;100.00;98157.41;5045784;28;20469;-86
2021/05/13 10:53:46;;;;;;;;;;;;;;;15.01;100.00;98146.03;5021533;28;20018;-85
2021/05/13 10:56:21;;;;;;;;;;;;;;;15.03;100.00;98156.81;5054709;28;19971;-86
2021/05/13 10:59:12;;;;;;;;;;;;;;;15.35;100.00;98154.00;5018361;28;20392;-86
2021/05/13 11:01:46;;;;;;;;;;;;;;;15.46;100.00;98159.94;5017901;28;19935;-86
2021/05/13 11:04:16;;;;;;;;;;;;;;;15.45;100.00;98158.34;5021474;28;19925;-86
2021/05/13 11:06:44;;;;;;;;;;;;;;;15.16;100.00;98149.72;5054261;28;19925;-86
2021/05/13 11:09:11;;;;;;;;;;;;;;;15.31;100.00;98159.03;5037975;28;19994;-86
2021/05/13 11:11:56;;;;;;;;;;;;;;;15.04;100.00;98155.56;5034563;28;19925;-86
2021/05/13 11:14:25;;;;;;;;;;;;;;;14.86;100.00;98155.66;5021677;28;19952;-86
2021/05/13 11:16:55;;;;;;;;;;;;;;;14.47;100.00;98154.63;5037477;28;19924;-86
2021/05/13 11:19:23;;;;;;;;;;;;;;;14.45;100.00;98157.13;5037581;28;19931;-86
2021/05/13 11:22:05;;;;;;;;;;;;;;;14.59;100.00;98150.06;5054437;28;19932;-86
2021/05/13 11:24:36;;;;;;;;;;;;;;;14.60;100.00;98149.59;5037780;28;19932;-86
2021/05/13 11:27:05;;;;;;;;;;;;;;;14.51;100.00;98146.81;5034784;28;19925;-85
2021/05/13 11:29:42;;;;;;;;;;;;;;;14.84;100.00;98144.06;5035792;28;19924;-85
2021/05/13 11:32:10;;;;;;;;;;;;;;;14.91;100.00;98147.34;5054455;28;19928;-82
2021/05/13 11:34:40;;;;;;;;;;;;;;;15.03;100.00;98145.56;5054159;28;20372;-78
2021/05/13 11:37:07;;;;;;;;;;;;;;;15.06;100.00;98147.41;5056041;28;19929;-83
2021/05/13 11:39:46;;;;;;;;;;;;;;;15.27;100.00;98143.56;5056320;28;19932;-83
2021/05/13 11:42:20;;;;;;;;;;;;;;;15.13;100.00;98142.22;5056233;28;20012;-83
2021/05/13 11:45:13;;;;;;;;;;;;;;;14.98;100.00;98144.16;5035266;28;20339;-83
2021/05/13 11:47:41;;;;;;;;;;;;;;;14.88;100.00;98142.66;5053128;28;19925;-83
2021/05/13 11:50:30;;;;;;;;;;;;;;;14.98;100.00;98146.97;5046383;28;20379;-83
2021/05/13 11:53:08;;;;;;;;;;;;;;;15.06;100.00;98145.41;5038426;28;20366;-83
2021/05/13 11:55:36;;;;;;;;;;;;;;;14.96;100.00;98140.28;5054747;28;19925;-83
2021/05/13 11:58:03;;;;;;;;;;;;;;;15.02;100.00;98147.59;5054561;28;19925;-83
2021/05/13 12:00:30;;;;;;;;;;;;;;;15.32;100.00;98151.38;5054975;28;19935;-83
2021/05/13 12:03:09;;;;;;;;;;;;;;;15.32;100.00;98142.94;5055887;28;19925;-83
2021/05/13 12:05:46;;;;;;;;;;;;;;;15.51;100.00;98150.81;5045337;28;19967;-86
2021/05/13 12:08:14;;;;;;;;;;;;;;;15.33;100.00;98147.28;5034177;28;19976;-86
2021/05/13 12:10:41;;;;;;;;;;;;;;;15.06;100.00;98144.59;5069325;28;20060;-88
2021/05/13 12:13:08;;;;;;;;;;;;;;;15.08;100.00;98151.34;5037743;28;19971;-88
2021/05/13 12:15:35;;;;;;;;;;;;;;;15.34;100.00;98152.44;5054144;28;19925;-88
2021/05/13 12:18:03;;;;;;;;;;;;;;;15.18;100.00;98146.44;5037704;28;20455;-88
2021/05/13 12:20:32;;;;;;;;;;;;;;;15.19;100.00;98145.94;5054228;28;20403;-87
2021/05/13 12:23:02;;;;;;;;;;;;;;;15.34;100.00;98152.44;5054174;28;19932;-88
2021/05/13 12:25:30;;;;;;;;;;;;;;;15.39;100.00;98143.38;5037388;28;20338;-88
2021/05/13 12:27:58;;;;;;;;;;;;;;;15.52;100.00;98146.75;5053758;28;19952;-88
2021/05/13 12:30:25;;;;;;;;;;;;;;;15.56;100.00;98150.16;5034265;28;19932;-87
2021/05/13 12:32:52;;;;;;;;;;;;;;;15.72;100.00;98140.53;5053956;28;19932;-87
2021/05/13 12:35:21;;;;;;;;;;;;;;;15.72;100.00;98141.28;5037727;28;20010;-88
2021/05/13 12:37:48;;;;;;;;;;;;;;;15.67;100.00;98144.78;5055088;28;19947;-88
2021/05/13 12:40:17;;;;;;;;;;;;;;;15.55;100.00;98140.19;5053913;28;19929;-88
2021/05/13 12:42:44;;;;;;;;;;;;;;;14.91;100.00;98147.34;5054399;28;20011;-87
2021/05/13 12:45:15;;;;;;;;;;;;;;;14.60;100.00;98143.97;5034335;28;19932;-88
2021/05/13 12:47:43;;;;;;;;;;;;;;;14.22;100.00;98157.78;5051578;28;19925;-88
2021/05/13 12:50:11;;;;;;;;;;;;;;;13.77;100.00;98160.53;5053081;28;20441;-87
2021/05/13 12:52:40;;;;;;;;;;;;;;;13.49;100.00;98164.56;5054769;28;19932;-88
2021/05/13 12:55:12;;;;;;;;;;;;;;;13.07;100.00;98171.91;5053249;28;19939;-87
2021/05/13 12:57:40;;;;;;;;;;;;;;;12.97;100.00;98175.88;5036942;28;19931;-88